createdAt,value
2019-03-01T00:02:57.480Z,22.63
2019-03-01T00:08:52.511Z,25.42
2019-03-01T00:14:47.487Z,26.51
2019-03-01T00:20:42.487Z,23.23
2019-03-01T00:26:37.533Z,23.37
2019-03-01T00:32:32.521Z,25.71
2019-03-01T00:38:27.517Z,24.36
2019-03-01T00:50:17.509Z,26.74
2019-03-01T00:56:12.551Z,26.03
2019-03-01T01:02:07.550Z,27.22
2019-03-01T01:08:02.510Z,27.11
2019-03-01T01:13:57.542Z,26.47
2019-03-01T01:19:52.508Z,27.05
2019-03-01T01:25:47.508Z,25.73
2019-03-01T01:31:42.514Z,25.92
2019-03-01T01:37:37.515Z,26.25
2019-03-01T01:43:32.509Z,25.72
2019-03-01T01:49:27.573Z,26.36
2019-03-01T01:55:22.519Z,25.19
2019-03-01T02:01:17.568Z,26.84
2019-03-01T02:07:12.571Z,26.29
2019-03-01T02:13:07.535Z,25.61
2019-03-01T02:19:02.536Z,25.74
2019-03-01T02:24:57.578Z,25.67
2019-03-01T02:30:52.563Z,24.5
2019-03-01T02:36:47.575Z,23.51
2019-03-01T02:42:42.582Z,21.44
2019-03-01T02:48:37.566Z,22.56
2019-03-01T02:54:32.598Z,21.99
2019-03-01T03:00:27.603Z,21
2019-03-01T03:06:22.580Z,21.61
2019-03-01T03:12:17.566Z,21.52
2019-03-01T03:18:12.582Z,21.1
2019-03-01T03:24:07.604Z,21.73
2019-03-01T03:30:02.596Z,22.25
2019-03-01T03:35:57.588Z,19.94
2019-03-01T03:41:52.584Z,18.49
2019-03-01T03:47:47.585Z,19.79
2019-03-01T03:53:42.607Z,22.67
2019-03-01T03:59:37.589Z,21.94
2019-03-01T04:05:32.612Z,21.89
2019-03-01T04:11:27.597Z,21.37
2019-03-01T04:17:22.610Z,20.57
2019-03-01T04:23:17.622Z,19.32
2019-03-01T04:29:12.637Z,19.9
2019-03-01T04:35:07.637Z,19.04
2019-03-01T04:41:02.628Z,19.27
2019-03-01T04:46:57.615Z,20.29
2019-03-01T04:52:52.642Z,21.1
2019-03-01T04:58:47.648Z,21.73
2019-03-01T05:04:42.663Z,19.74
2019-03-01T05:10:37.636Z,19.6
2019-03-01T05:16:32.627Z,20.83
2019-03-01T05:22:27.646Z,19.93
2019-03-01T05:28:22.657Z,19.24
2019-03-01T05:34:17.654Z,19.02
2019-03-01T05:40:12.665Z,21.27
2019-03-01T05:46:07.657Z,19.65
2019-03-01T05:52:02.674Z,19.76
2019-03-01T05:57:57.675Z,17.44
2019-03-01T06:03:52.688Z,15.89
2019-03-01T06:09:47.689Z,16.99
2019-03-01T06:15:42.680Z,17.72
2019-03-01T06:21:37.679Z,16.71
2019-03-01T06:27:32.672Z,18.2
2019-03-01T06:33:27.712Z,18.92
2019-03-01T06:39:22.776Z,15.3
2019-03-01T06:45:17.777Z,13.41
2019-03-01T06:51:12.705Z,14.41
2019-03-01T06:57:07.709Z,14.88
2019-03-01T07:03:02.768Z,17.13
2019-03-01T07:08:57.728Z,16.71
2019-03-01T07:14:52.709Z,18.54
2019-03-01T07:20:47.718Z,17.51
2019-03-01T07:26:42.700Z,17.53
2019-03-01T07:32:37.784Z,15.26
2019-03-01T07:38:32.699Z,16.69
2019-03-01T07:44:27.710Z,18.14
2019-03-01T07:50:23.135Z,18.24
2019-03-01T07:56:17.738Z,19.66
2019-03-01T08:02:12.738Z,19.98
2019-03-01T08:08:07.786Z,24.93
2019-03-01T08:14:02.720Z,25.28
2019-03-01T08:19:58.431Z,27.52
2019-03-01T08:25:55.479Z,28.18
2019-03-01T08:31:47.739Z,28.4
2019-03-01T08:37:42.760Z,27.97
2019-03-01T08:43:37.729Z,27.39
2019-03-01T08:49:32.735Z,25.79
2019-03-01T08:55:27.775Z,28.85
2019-03-01T09:01:22.779Z,27.39
2019-03-01T09:07:17.761Z,27.98
2019-03-01T09:13:12.748Z,27.22
2019-03-01T09:19:07.769Z,27.18
2019-03-01T09:25:06.283Z,30.43
2019-03-01T09:30:57.795Z,23.58
2019-03-01T09:36:54.701Z,35.83
2019-03-01T09:42:51.087Z,43.33
2019-03-01T09:48:45.507Z,39.41
2019-03-01T09:54:37.787Z,39.78
2019-03-01T10:00:32.771Z,23.41
2019-03-01T10:06:37.609Z,20.74
2019-03-01T10:12:22.815Z,17.78
2019-03-01T10:18:17.806Z,17.23
2019-03-01T10:24:12.800Z,23.14
2019-03-01T10:30:07.840Z,22.64
2019-03-01T10:36:02.852Z,17.94
2019-03-01T10:41:57.798Z,23.24
2019-03-01T10:47:52.847Z,32.64
2019-03-01T10:53:48.001Z,18.87
2019-03-01T10:59:42.837Z,39.13
2019-03-01T11:05:37.833Z,38.55
2019-03-01T11:11:32.822Z,25.48
2019-03-01T11:17:27.813Z,29.55
2019-03-01T11:23:22.885Z,18.08
2019-03-01T11:29:17.858Z,56.43
2019-03-01T11:35:12.846Z,20.83
2019-03-01T11:41:07.850Z,26.89
2019-03-01T11:47:02.885Z,24.33
2019-03-01T11:52:57.851Z,24.14
2019-03-01T11:58:52.855Z,20.25
2019-03-01T12:04:47.867Z,21.48
2019-03-01T12:10:42.903Z,49.56
2019-03-01T12:16:37.888Z,32.58
2019-03-01T12:22:32.860Z,11.32
2019-03-01T12:28:27.872Z,13.29
2019-03-01T12:34:22.895Z,18.54
2019-03-01T12:40:17.879Z,24.49
2019-03-01T12:46:12.923Z,12.41
2019-03-01T12:52:07.869Z,10.17
2019-03-01T12:58:02.895Z,12.83
2019-03-01T13:03:57.900Z,12.57
2019-03-01T13:09:52.894Z,17.59
2019-03-01T13:15:48.656Z,13.6
2019-03-01T13:21:45.484Z,19.06
2019-03-01T13:27:37.899Z,20.47
2019-03-01T13:33:34.669Z,18.67
2019-03-01T13:39:27.951Z,10.43
2019-03-01T13:45:22.922Z,11.46
2019-03-01T13:51:17.985Z,18.69
2019-03-01T13:57:12.917Z,14.07
2019-03-01T14:03:07.947Z,14.98
2019-03-01T14:09:02.927Z,37
2019-03-01T14:14:59.207Z,19.79
2019-03-01T14:20:54.333Z,9.8
2019-03-01T14:26:50.536Z,12.86
2019-03-01T14:32:42.952Z,14.49
2019-03-01T14:38:38.017Z,10.97
2019-03-01T14:44:33.811Z,13.99
2019-03-01T14:50:29.805Z,15.01
2019-03-01T14:56:22.966Z,13.7
2019-03-01T15:02:17.987Z,13.13
2019-03-01T15:08:12.982Z,15.75
2019-03-01T15:14:12.000Z,12.68
2019-03-01T15:20:02.968Z,11.56
2019-03-01T15:25:57.976Z,8.66
2019-03-01T15:31:54.815Z,12.49
2019-03-01T15:37:47.966Z,12.19
2019-03-01T15:43:42.986Z,10.22
2019-03-01T15:49:37.991Z,10.79
2019-03-01T15:55:32.991Z,11.05
2019-03-01T16:01:28.001Z,11.51
2019-03-01T16:07:22.973Z,12.06
2019-03-01T16:13:17.995Z,12.85
2019-03-01T16:19:13.822Z,13.67
2019-03-01T16:25:08.026Z,14.3
2019-03-01T16:31:02.992Z,15.82
2019-03-01T16:36:58.026Z,13.89
2019-03-01T16:42:54.080Z,13.43
2019-03-01T16:48:48.671Z,13.81
2019-03-01T16:54:43.067Z,14.23
2019-03-01T17:00:38.033Z,14.72
2019-03-01T17:06:33.070Z,14.55
2019-03-01T17:12:28.050Z,15.15
2019-03-01T17:18:23.053Z,14.24
2019-03-01T17:24:18.049Z,13.12
2019-03-01T17:30:14.300Z,17.66
2019-03-01T17:36:08.062Z,22.52
2019-03-01T17:42:03.037Z,19
2019-03-01T17:47:58.041Z,19.15
2019-03-01T17:53:53.054Z,21.05
2019-03-01T17:59:49.121Z,21.44
2019-03-01T18:05:43.050Z,22.94
2019-03-01T18:11:40.599Z,22.77
2019-03-01T18:17:36.364Z,25.68
2019-03-01T18:23:28.061Z,23.78
2019-03-01T18:29:23.075Z,25.64
2019-03-01T18:35:18.072Z,30.27
2019-03-01T18:41:13.103Z,28.33
2019-03-01T18:47:08.106Z,25.23
2019-03-01T18:53:03.930Z,27.23
2019-03-01T18:58:58.092Z,27.66
2019-03-01T19:04:53.086Z,24.67
2019-03-01T19:10:54.076Z,32.91
2019-03-01T19:16:43.130Z,23.62
2019-03-01T19:22:38.133Z,19.4
2019-03-01T19:28:33.099Z,26.76
2019-03-01T19:34:28.147Z,31.27
2019-03-01T19:40:23.152Z,33.25
2019-03-01T19:46:18.091Z,23.24
2019-03-01T19:52:13.155Z,21.76
2019-03-01T19:58:08.630Z,22.22
2019-03-01T20:04:03.119Z,33.75
2019-03-01T20:09:58.115Z,29.14
2019-03-01T20:15:53.123Z,21.36
2019-03-01T20:21:48.171Z,19.99
2019-03-01T20:27:43.188Z,21.75
2019-03-01T20:33:38.182Z,21.68
2019-03-01T20:39:33.264Z,21.1
2019-03-01T20:45:29.772Z,19.36
2019-03-01T20:51:26.808Z,18.67
2019-03-01T20:57:18.164Z,17.59
2019-03-01T21:03:13.147Z,19.29
2019-03-01T21:09:08.195Z,19.54
2019-03-01T21:15:03.174Z,17.65
2019-03-01T21:20:58.161Z,18.95
2019-03-01T21:26:53.155Z,16.62
2019-03-01T21:32:50.670Z,17.49
2019-03-01T21:38:45.535Z,17.28
2019-03-01T21:44:38.172Z,17.94
2019-03-01T21:50:33.191Z,18.44
2019-03-01T21:56:28.184Z,18.98
2019-03-01T22:02:23.189Z,16.93
2019-03-01T22:08:18.292Z,19.02
2019-03-01T22:14:14.242Z,22.03
2019-03-01T22:20:08.858Z,21.32
2019-03-01T22:26:03.182Z,20.61
2019-03-01T22:31:58.192Z,19.93
2019-03-01T22:37:53.202Z,18.07
2019-03-01T22:43:48.193Z,18.98
2019-03-01T22:49:43.215Z,18.48
2019-03-01T22:55:38.202Z,20.22
2019-03-01T23:01:33.601Z,21.84
2019-03-01T23:07:28.208Z,22.13
2019-03-01T23:13:23.205Z,22.18
2019-03-01T23:19:18.250Z,22.7
2019-03-01T23:25:13.226Z,22.57
2019-03-01T23:31:08.223Z,23.88
2019-03-01T23:37:03.475Z,23.96
2019-03-01T23:42:58.224Z,21.09
2019-03-01T23:48:53.233Z,20.33
2019-03-01T23:54:48.235Z,21.48
